sensor_id;sensor_type;location;lat;lon;timestamp;P1;durP1;ratioP1;P2;durP2;ratioP2
57893;SDS011;43710;47.460;19.034;2024-02-26T05:06:41;16.75;;;12.52;;
57893;SDS011;43710;47.460;19.034;2024-02-26T05:09:44;16.48;;;13.35;;
57893;SDS011;43710;47.460;19.034;2024-02-26T05:12:46;17.10;;;11.85;;
57893;SDS011;43710;47.460;19.034;2024-02-26T05:15:49;14.65;;;11.80;;
57893;SDS011;43710;47.460;19.034;2024-02-26T05:18:54;14.73;;;11.60;;
57893;SDS011;43710;47.460;19.034;2024-02-26T05:21:57;13.00;;;10.50;;
57893;SDS011;43710;47.460;19.034;2024-02-26T05:25:00;14.02;;;11.95;;
57893;SDS011;43710;47.460;19.034;2024-02-26T05:28:02;15.60;;;12.30;;
57893;SDS011;43710;47.460;19.034;2024-02-26T05:31:05;15.52;;;12.15;;
57893;SDS011;43710;47.460;19.034;2024-02-26T05:34:08;17.02;;;10.73;;
57893;SDS011;43710;47.460;19.034;2024-02-26T05:37:10;13.55;;;11.10;;
57893;SDS011;43710;47.460;19.034;2024-02-26T05:40:13;18.85;;;12.90;;
57893;SDS011;43710;47.460;19.034;2024-02-26T05:43:15;15.93;;;11.70;;
57893;SDS011;43710;47.460;19.034;2024-02-26T05:46:19;13.38;;;10.95;;
57893;SDS011;43710;47.460;19.034;2024-02-26T05:49:24;16.37;;;11.85;;
57893;SDS011;43710;47.460;19.034;2024-02-26T05:52:27;13.18;;;11.38;;
57893;SDS011;43710;47.460;19.034;2024-02-26T05:55:31;15.43;;;11.48;;
57893;SDS011;43710;47.460;19.034;2024-02-26T05:58:33;15.43;;;12.45;;
57893;SDS011;43710;47.460;19.034;2024-02-26T06:01:36;19.12;;;13.90;;
57893;SDS011;43710;47.460;19.034;2024-02-26T06:04:39;19.48;;;14.70;;
57893;SDS011;43710;47.460;19.034;2024-02-26T06:07:42;17.25;;;13.45;;
57893;SDS011;43710;47.460;19.034;2024-02-26T06:10:45;18.75;;;14.57;;
57893;SDS011;43710;47.460;19.034;2024-02-26T06:13:47;18.70;;;14.35;;
57893;SDS011;43710;47.460;19.034;2024-02-26T06:16:49;18.40;;;14.80;;
57893;SDS011;43710;47.460;19.034;2024-02-26T06:19:52;18.30;;;14.00;;
57893;SDS011;43710;47.460;19.034;2024-02-26T06:22:54;19.80;;;15.15;;
57893;SDS011;43710;47.460;19.034;2024-02-26T06:25:56;20.05;;;14.10;;
57893;SDS011;43710;47.460;19.034;2024-02-26T06:28:59;20.45;;;14.60;;
57893;SDS011;43710;47.460;19.034;2024-02-26T06:32:01;19.48;;;14.98;;
57893;SDS011;43710;47.460;19.034;2024-02-26T06:35:03;18.08;;;13.95;;
57893;SDS011;43710;47.460;19.034;2024-02-26T06:38:10;19.67;;;14.60;;
57893;SDS011;43710;47.460;19.034;2024-02-26T06:41:14;19.02;;;14.98;;
57893;SDS011;43710;47.460;19.034;2024-02-26T06:44:17;23.65;;;14.98;;
57893;SDS011;43710;47.460;19.034;2024-02-26T06:47:19;19.77;;;14.60;;
57893;SDS011;43710;47.460;19.034;2024-02-26T06:50:22;18.77;;;13.68;;
57893;SDS011;43710;47.460;19.034;2024-02-26T06:53:25;17.70;;;13.25;;
57893;SDS011;43710;47.460;19.034;2024-02-26T06:56:27;18.30;;;14.40;;
57893;SDS011;43710;47.460;19.034;2024-02-26T06:59:30;21.48;;;15.80;;
57893;SDS011;43710;47.460;19.034;2024-02-26T07:02:33;20.90;;;14.70;;
57893;SDS011;43710;47.460;19.034;2024-02-26T07:05:40;19.17;;;15.00;;
57893;SDS011;43710;47.460;19.034;2024-02-26T07:08:43;18.90;;;14.02;;
57893;SDS011;43710;47.460;19.034;2024-02-26T07:11:46;21.15;;;15.63;;
57893;SDS011;43710;47.460;19.034;2024-02-26T07:14:48;18.17;;;14.65;;
57893;SDS011;43710;47.460;19.034;2024-02-26T07:17:52;20.23;;;15.10;;
57893;SDS011;43710;47.460;19.034;2024-02-26T07:20:54;18.15;;;14.25;;
57893;SDS011;43710;47.460;19.034;2024-02-26T07:23:58;20.00;;;15.27;;
57893;SDS011;43710;47.460;19.034;2024-02-26T07:27:03;20.87;;;15.43;;
57893;SDS011;43710;47.460;19.034;2024-02-26T07:30:06;19.17;;;14.23;;
57893;SDS011;43710;47.460;19.034;2024-02-26T07:33:10;20.10;;;15.48;;
57893;SDS011;43710;47.460;19.034;2024-02-26T07:36:14;21.45;;;15.02;;
57893;SDS011;43710;47.460;19.034;2024-02-26T07:39:16;21.20;;;16.80;;
57893;SDS011;43710;47.460;19.034;2024-02-26T07:42:19;24.67;;;18.90;;
57893;SDS011;43710;47.460;19.034;2024-02-26T07:45:21;24.48;;;18.73;;
57893;SDS011;43710;47.460;19.034;2024-02-26T07:48:24;21.80;;;17.80;;
57893;SDS011;43710;47.460;19.034;2024-02-26T07:51:27;25.83;;;20.98;;
57893;SDS011;43710;47.460;19.034;2024-02-26T07:54:29;25.33;;;20.10;;
57893;SDS011;43710;47.460;19.034;2024-02-26T07:57:32;23.05;;;18.65;;
57893;SDS011;43710;47.460;19.034;2024-02-26T08:00:35;19.83;;;16.73;;
57893;SDS011;43710;47.460;19.034;2024-02-26T08:03:38;24.27;;;18.87;;
57893;SDS011;43710;47.460;19.034;2024-02-26T08:06:40;28.85;;;20.62;;
57893;SDS011;43710;47.460;19.034;2024-02-26T08:09:43;27.70;;;20.85;;
57893;SDS011;43710;47.460;19.034;2024-02-26T08:12:45;26.23;;;21.40;;
57893;SDS011;43710;47.460;19.034;2024-02-26T08:15:48;25.35;;;21.40;;
57893;SDS011;43710;47.460;19.034;2024-02-26T08:18:50;25.25;;;20.30;;
57893;SDS011;43710;47.460;19.034;2024-02-26T08:21:53;26.48;;;21.23;;
57893;SDS011;43710;47.460;19.034;2024-02-26T08:24:55;27.65;;;20.65;;
57893;SDS011;43710;47.460;19.034;2024-02-26T08:27:57;29.55;;;23.23;;
57893;SDS011;43710;47.460;19.034;2024-02-26T08:31:00;27.05;;;21.67;;
57893;SDS011;43710;47.460;19.034;2024-02-26T08:34:04;25.77;;;22.13;;
57893;SDS011;43710;47.460;19.034;2024-02-26T08:37:07;28.10;;;23.98;;
57893;SDS011;43710;47.460;19.034;2024-02-26T08:40:09;32.80;;;24.77;;
57893;SDS011;43710;47.460;19.034;2024-02-26T08:43:12;28.10;;;24.05;;
57893;SDS011;43710;47.460;19.034;2024-02-26T08:46:15;24.42;;;20.00;;
57893;SDS011;43710;47.460;19.034;2024-02-26T08:49:17;27.62;;;22.40;;
57893;SDS011;43710;47.460;19.034;2024-02-26T08:52:20;28.20;;;21.73;;
57893;SDS011;43710;47.460;19.034;2024-02-26T08:55:23;28.10;;;21.52;;
57893;SDS011;43710;47.460;19.034;2024-02-26T08:58:27;30.95;;;22.08;;
57893;SDS011;43710;47.460;19.034;2024-02-26T09:01:33;26.65;;;20.83;;
57893;SDS011;43710;47.460;19.034;2024-02-26T09:04:36;27.30;;;19.87;;
57893;SDS011;43710;47.460;19.034;2024-02-26T09:07:38;27.25;;;20.42;;
57893;SDS011;43710;47.460;19.034;2024-02-26T09:10:41;31.10;;;23.30;;
57893;SDS011;43710;47.460;19.034;2024-02-26T09:13:43;25.30;;;21.25;;
57893;SDS011;43710;47.460;19.034;2024-02-26T09:16:46;25.52;;;22.00;;
57893;SDS011;43710;47.460;19.034;2024-02-26T09:19:50;27.70;;;22.17;;
57893;SDS011;43710;47.460;19.034;2024-02-26T09:22:52;27.02;;;20.50;;
57893;SDS011;43710;47.460;19.034;2024-02-26T09:25:55;29.40;;;22.83;;
57893;SDS011;43710;47.460;19.034;2024-02-26T09:28:57;25.58;;;20.80;;
57893;SDS011;43710;47.460;19.034;2024-02-26T09:32:00;26.02;;;20.73;;
57893;SDS011;43710;47.460;19.034;2024-02-26T09:35:03;34.50;;;21.10;;
57893;SDS011;43710;47.460;19.034;2024-02-26T09:38:06;24.05;;;21.50;;
57893;SDS011;43710;47.460;19.034;2024-02-26T09:41:16;24.83;;;21.92;;
57893;SDS011;43710;47.460;19.034;2024-02-26T09:44:19;26.00;;;22.92;;
57893;SDS011;43710;47.460;19.034;2024-02-26T09:47:24;27.42;;;21.75;;
57893;SDS011;43710;47.460;19.034;2024-02-26T09:50:30;29.87;;;24.43;;
57893;SDS011;43710;47.460;19.034;2024-02-26T09:53:32;27.67;;;24.80;;
57893;SDS011;43710;47.460;19.034;2024-02-26T09:56:36;31.42;;;23.17;;
57893;SDS011;43710;47.460;19.034;2024-02-26T09:59:59;26.23;;;21.70;;
57893;SDS011;43710;47.460;19.034;2024-02-26T10:03:09;26.02;;;22.67;;
57893;SDS011;43710;47.460;19.034;2024-02-26T10:06:16;26.92;;;23.62;;
57893;SDS011;43710;47.460;19.034;2024-02-26T10:09:19;29.25;;;23.98;;
57893;SDS011;43710;47.460;19.034;2024-02-26T10:12:22;28.10;;;23.73;;
57893;SDS011;43710;47.460;19.034;2024-02-26T10:15:27;26.75;;;21.73;;
57893;SDS011;43710;47.460;19.034;2024-02-26T10:18:48;30.98;;;23.60;;
57893;SDS011;43710;47.460;19.034;2024-02-26T10:22:01;26.15;;;23.20;;
57893;SDS011;43710;47.460;19.034;2024-02-26T10:25:05;29.35;;;23.75;;
57893;SDS011;43710;47.460;19.034;2024-02-26T10:28:09;29.50;;;24.83;;
57893;SDS011;43710;47.460;19.034;2024-02-26T10:31:11;31.42;;;25.05;;
57893;SDS011;43710;47.460;19.034;2024-02-26T10:34:16;24.37;;;20.55;;
57893;SDS011;43710;47.460;19.034;2024-02-26T10:37:18;24.30;;;19.73;;
57893;SDS011;43710;47.460;19.034;2024-02-26T10:40:21;21.90;;;19.25;;
57893;SDS011;43710;47.460;19.034;2024-02-26T10:43:25;26.35;;;19.55;;
57893;SDS011;43710;47.460;19.034;2024-02-26T10:46:27;23.20;;;19.15;;
57893;SDS011;43710;47.460;19.034;2024-02-26T10:49:30;24.92;;;19.90;;
57893;SDS011;43710;47.460;19.034;2024-02-26T10:52:33;22.98;;;18.23;;
57893;SDS011;43710;47.460;19.034;2024-02-26T10:55:37;22.10;;;18.42;;
57893;SDS011;43710;47.460;19.034;2024-02-26T10:58:40;21.77;;;17.45;;
57893;SDS011;43710;47.460;19.034;2024-02-26T11:01:44;25.48;;;20.52;;
57893;SDS011;43710;47.460;19.034;2024-02-26T11:04:49;30.12;;;22.37;;
57893;SDS011;43710;47.460;19.034;2024-02-26T11:07:52;30.05;;;22.52;;
57893;SDS011;43710;47.460;19.034;2024-02-26T11:10:55;23.00;;;19.33;;
57893;SDS011;43710;47.460;19.034;2024-02-26T11:13:58;22.13;;;19.30;;
57893;SDS011;43710;47.460;19.034;2024-02-26T11:17:03;21.67;;;17.60;;
57893;SDS011;43710;47.460;19.034;2024-02-26T11:20:05;22.55;;;18.58;;
57893;SDS011;43710;47.460;19.034;2024-02-26T11:23:13;19.52;;;16.67;;
57893;SDS011;43710;47.460;19.034;2024-02-26T11:26:15;20.35;;;16.85;;
57893;SDS011;43710;47.460;19.034;2024-02-26T11:29:20;20.50;;;16.73;;
57893;SDS011;43710;47.460;19.034;2024-02-26T11:32:24;15.77;;;12.93;;
57893;SDS011;43710;47.460;19.034;2024-02-26T11:35:28;17.12;;;13.02;;
57893;SDS011;43710;47.460;19.034;2024-02-26T11:38:31;14.50;;;12.60;;
57893;SDS011;43710;47.460;19.034;2024-02-26T11:41:36;13.30;;;11.20;;
57893;SDS011;43710;47.460;19.034;2024-02-26T11:44:38;11.50;;;10.13;;
57893;SDS011;43710;47.460;19.034;2024-02-26T11:47:44;14.75;;;10.68;;
57893;SDS011;43710;47.460;19.034;2024-02-26T11:50:59;11.23;;;10.02;;
57893;SDS011;43710;47.460;19.034;2024-02-26T11:54:01;12.50;;;10.57;;
57893;SDS011;43710;47.460;19.034;2024-02-26T11:57:04;12.85;;;9.85;;
57893;SDS011;43710;47.460;19.034;2024-02-26T12:03:10;12.10;;;9.77;;
57893;SDS011;43710;47.460;19.034;2024-02-26T12:06:14;12.00;;;9.70;;
57893;SDS011;43710;47.460;19.034;2024-02-26T12:12:34;14.87;;;9.02;;
57893;SDS011;43710;47.460;19.034;2024-02-26T12:15:38;10.57;;;8.68;;
57893;SDS011;43710;47.460;19.034;2024-02-26T12:18:43;8.90;;;8.00;;
57893;SDS011;43710;47.460;19.034;2024-02-26T12:21:50;10.80;;;7.93;;
57893;SDS011;43710;47.460;19.034;2024-02-26T12:24:58;9.55;;;6.90;;
57893;SDS011;43710;47.460;19.034;2024-02-26T12:28:02;11.25;;;7.53;;
57893;SDS011;43710;47.460;19.034;2024-02-26T12:31:05;9.73;;;7.25;;
57893;SDS011;43710;47.460;19.034;2024-02-26T12:34:08;9.52;;;6.68;;
57893;SDS011;43710;47.460;19.034;2024-02-26T12:37:14;10.32;;;6.97;;
57893;SDS011;43710;47.460;19.034;2024-02-26T12:40:16;10.40;;;7.55;;
57893;SDS011;43710;47.460;19.034;2024-02-26T12:43:19;11.52;;;7.80;;
57893;SDS011;43710;47.460;19.034;2024-02-26T12:46:22;14.00;;;7.62;;
57893;SDS011;43710;47.460;19.034;2024-02-26T12:49:24;10.32;;;7.95;;
57893;SDS011;43710;47.460;19.034;2024-02-26T12:52:28;9.10;;;7.93;;
57893;SDS011;43710;47.460;19.034;2024-02-26T12:55:30;9.63;;;8.35;;
57893;SDS011;43710;47.460;19.034;2024-02-26T12:58:36;10.63;;;9.30;;
57893;SDS011;43710;47.460;19.034;2024-02-26T13:01:41;10.43;;;8.57;;
57893;SDS011;43710;47.460;19.034;2024-02-26T13:04:44;9.70;;;8.68;;
57893;SDS011;43710;47.460;19.034;2024-02-26T13:07:46;9.68;;;8.35;;
57893;SDS011;43710;47.460;19.034;2024-02-26T13:10:49;11.27;;;8.55;;
57893;SDS011;43710;47.460;19.034;2024-02-26T13:13:53;9.27;;;7.78;;
57893;SDS011;43710;47.460;19.034;2024-02-26T13:16:59;9.13;;;8.20;;
57893;SDS011;43710;47.460;19.034;2024-02-26T13:20:02;11.15;;;9.07;;
57893;SDS011;43710;47.460;19.034;2024-02-26T13:23:06;10.50;;;8.60;;
57893;SDS011;43710;47.460;19.034;2024-02-26T13:26:11;9.55;;;8.00;;
57893;SDS011;43710;47.460;19.034;2024-02-26T13:29:18;10.27;;;7.95;;
57893;SDS011;43710;47.460;19.034;2024-02-26T13:32:21;8.18;;;7.37;;
57893;SDS011;43710;47.460;19.034;2024-02-26T13:35:23;8.55;;;7.62;;
57893;SDS011;43710;47.460;19.034;2024-02-26T13:38:26;8.95;;;7.87;;
57893;SDS011;43710;47.460;19.034;2024-02-26T13:41:30;9.27;;;7.80;;
57893;SDS011;43710;47.460;19.034;2024-02-26T13:44:32;8.07;;;7.28;;
57893;SDS011;43710;47.460;19.034;2024-02-26T13:50:42;11.38;;;8.07;;
57893;SDS011;43710;47.460;19.034;2024-02-26T13:53:45;9.27;;;8.32;;
57893;SDS011;43710;47.460;19.034;2024-02-26T13:56:48;11.00;;;9.30;;
57893;SDS011;43710;47.460;19.034;2024-02-26T13:59:50;9.98;;;8.98;;
57893;SDS011;43710;47.460;19.034;2024-02-26T14:02:53;10.35;;;9.13;;
57893;SDS011;43710;47.460;19.034;2024-02-26T14:05:56;10.98;;;9.70;;
57893;SDS011;43710;47.460;19.034;2024-02-26T14:08:59;10.10;;;9.05;;
57893;SDS011;43710;47.460;19.034;2024-02-26T14:12:01;9.88;;;8.95;;
57893;SDS011;43710;47.460;19.034;2024-02-26T14:15:05;10.70;;;9.00;;
57893;SDS011;43710;47.460;19.034;2024-02-26T14:18:11;10.45;;;9.35;;
57893;SDS011;43710;47.460;19.034;2024-02-26T14:21:14;11.18;;;9.20;;
57893;SDS011;43710;47.460;19.034;2024-02-26T14:24:17;12.30;;;10.27;;
57893;SDS011;43710;47.460;19.034;2024-02-26T14:27:19;10.27;;;9.20;;
57893;SDS011;43710;47.460;19.034;2024-02-26T14:30:25;13.68;;;9.43;;
57893;SDS011;43710;47.460;19.034;2024-02-26T14:33:27;12.05;;;10.48;;
57893;SDS011;43710;47.460;19.034;2024-02-26T14:36:30;12.10;;;10.35;;
57893;SDS011;43710;47.460;19.034;2024-02-26T14:39:32;13.13;;;11.70;;
57893;SDS011;43710;47.460;19.034;2024-02-26T14:42:35;12.27;;;10.98;;
57893;SDS011;43710;47.460;19.034;2024-02-26T14:45:37;14.02;;;11.48;;
57893;SDS011;43710;47.460;19.034;2024-02-26T14:48:40;15.65;;;11.80;;
57893;SDS011;43710;47.460;19.034;2024-02-26T14:51:43;14.60;;;11.70;;
57893;SDS011;43710;47.460;19.034;2024-02-26T14:57:53;14.70;;;10.98;;
57893;SDS011;43710;47.460;19.034;2024-02-26T15:00:55;15.82;;;10.48;;
57893;SDS011;43710;47.460;19.034;2024-02-26T15:03:57;13.07;;;10.52;;
57893;SDS011;43710;47.460;19.034;2024-02-26T15:07:01;15.48;;;10.02;;
57893;SDS011;43710;47.460;19.034;2024-02-26T15:10:04;17.35;;;10.60;;
57893;SDS011;43710;47.460;19.034;2024-02-26T15:13:06;12.63;;;10.18;;
57893;SDS011;43710;47.460;19.034;2024-02-26T15:16:16;13.75;;;10.40;;
57893;SDS011;43710;47.460;19.034;2024-02-26T15:19:19;17.08;;;10.45;;
57893;SDS011;43710;47.460;19.034;2024-02-26T15:22:21;13.23;;;10.25;;
57893;SDS011;43710;47.460;19.034;2024-02-26T15:25:24;13.80;;;9.93;;
57893;SDS011;43710;47.460;19.034;2024-02-26T15:28:27;13.52;;;9.55;;
57893;SDS011;43710;47.460;19.034;2024-02-26T15:31:30;13.73;;;9.70;;
57893;SDS011;43710;47.460;19.034;2024-02-26T15:34:33;14.95;;;10.07;;
57893;SDS011;43710;47.460;19.034;2024-02-26T15:37:35;13.70;;;9.35;;
57893;SDS011;43710;47.460;19.034;2024-02-26T15:40:38;11.02;;;9.18;;
57893;SDS011;43710;47.460;19.034;2024-02-26T15:43:40;13.73;;;9.40;;
57893;SDS011;43710;47.460;19.034;2024-02-26T15:46:42;15.10;;;10.15;;
57893;SDS011;43710;47.460;19.034;2024-02-26T15:49:45;13.62;;;10.50;;
57893;SDS011;43710;47.460;19.034;2024-02-26T15:52:47;15.88;;;10.38;;
57893;SDS011;43710;47.460;19.034;2024-02-26T15:55:50;12.85;;;10.40;;
57893;SDS011;43710;47.460;19.034;2024-02-26T15:58:52;13.52;;;10.65;;
57893;SDS011;43710;47.460;19.034;2024-02-26T16:01:55;13.35;;;10.43;;
57893;SDS011;43710;47.460;19.034;2024-02-26T16:04:57;21.10;;;11.30;;
57893;SDS011;43710;47.460;19.034;2024-02-26T16:08:00;16.30;;;11.35;;
57893;SDS011;43710;47.460;19.034;2024-02-26T16:11:07;18.73;;;11.73;;
57893;SDS011;43710;47.460;19.034;2024-02-26T16:17:42;15.85;;;12.50;;
57893;SDS011;43710;47.460;19.034;2024-02-26T16:20:49;17.15;;;13.48;;
57893;SDS011;43710;47.460;19.034;2024-02-26T16:23:52;16.20;;;12.82;;
57893;SDS011;43710;47.460;19.034;2024-02-26T16:26:54;13.68;;;12.13;;
57893;SDS011;43710;47.460;19.034;2024-02-26T16:29:57;15.40;;;12.45;;
57893;SDS011;43710;47.460;19.034;2024-02-26T16:32:59;22.02;;;13.93;;
57893;SDS011;43710;47.460;19.034;2024-02-26T16:36:02;22.08;;;14.50;;
57893;SDS011;43710;47.460;19.034;2024-02-26T16:39:04;21.42;;;14.95;;
57893;SDS011;43710;47.460;19.034;2024-02-26T16:42:07;20.55;;;13.88;;
57893;SDS011;43710;47.460;19.034;2024-02-26T16:45:12;19.70;;;14.45;;
57893;SDS011;43710;47.460;19.034;2024-02-26T16:48:15;18.87;;;14.32;;
57893;SDS011;43710;47.460;19.034;2024-02-26T16:51:18;25.08;;;15.27;;
57893;SDS011;43710;47.460;19.034;2024-02-26T16:54:21;20.30;;;14.70;;
57893;SDS011;43710;47.460;19.034;2024-02-26T16:57:24;20.70;;;16.23;;
57893;SDS011;43710;47.460;19.034;2024-02-26T17:00:26;21.67;;;16.90;;
57893;SDS011;43710;47.460;19.034;2024-02-26T17:03:29;21.02;;;16.83;;
